<?xml version="1.0" encoding="UTF-8" standalone="no" ?>
<gpx xmlns="http://www.topografix.com/GPX/1/1" xmlns:xsi="http://www.w3.org/2001/XMLSchema-instance" xsi:schemaLocation="http://www.topografix.com/GPX/1/1 http://www.topografix.com/GPX/1/1/gpx.xsd" version="1.1" creator="VisuGPX - https://www.visugpx.com">
  <metadata>
    <name>marche courte 2016</name>
    <desc><![CDATA[marche courte landul 2016]]></desc>
  </metadata>
  <trk>
    <name><![CDATA[OR-6080723--Landudal:Marche 8km Trail 2016]]></name>
    <trkseg>
      <trkpt lat="48.06383" lon="-3.97555">
        <ele>123</ele>
        <time>2016-06-15T17:52:45Z</time>
      </trkpt>
      <trkpt lat="48.06388" lon="-3.9752">
        <ele>123</ele>
        <time>2016-06-15T17:54:45Z</time>
      </trkpt>
      <trkpt lat="48.06391" lon="-3.97477">
        <ele>123</ele>
        <time>2016-06-15T17:56:45Z</time>
      </trkpt>
      <trkpt lat="48.06287" lon="-3.97442">
        <ele>120</ele>
        <time>2016-06-15T17:58:45Z</time>
      </trkpt>
      <trkpt lat="48.0629" lon="-3.97415">
        <ele>119</ele>
        <time>2016-06-15T18:00:45Z</time>
      </trkpt>
      <trkpt lat="48.06289" lon="-3.97372">
        <ele>118</ele>
        <time>2016-06-15T18:02:45Z</time>
      </trkpt>
      <trkpt lat="48.06297" lon="-3.97328">
        <ele>117</ele>
        <time>2016-06-15T18:04:45Z</time>
      </trkpt>
      <trkpt lat="48.06307" lon="-3.97283">
        <ele>115</ele>
        <time>2016-06-15T18:06:45Z</time>
      </trkpt>
      <trkpt lat="48.0633" lon="-3.97286">
        <ele>116</ele>
        <time>2016-06-15T18:08:45Z</time>
      </trkpt>
      <trkpt lat="48.06342" lon="-3.97284">
        <ele>116</ele>
        <time>2016-06-15T18:10:45Z</time>
      </trkpt>
      <trkpt lat="48.06342" lon="-3.9727">
        <ele>116</ele>
        <time>2016-06-15T18:12:45Z</time>
      </trkpt>
      <trkpt lat="48.06323" lon="-3.97252">
        <ele>114</ele>
        <time>2016-06-15T18:14:45Z</time>
      </trkpt>
      <trkpt lat="48.06289" lon="-3.97229">
        <ele>112</ele>
        <time>2016-06-15T18:16:45Z</time>
      </trkpt>
      <trkpt lat="48.06267" lon="-3.97221">
        <ele>111</ele>
        <time>2016-06-15T18:18:45Z</time>
      </trkpt>
      <trkpt lat="48.06238" lon="-3.97227">
        <ele>110</ele>
        <time>2016-06-15T18:20:45Z</time>
      </trkpt>
      <trkpt lat="48.06206" lon="-3.97224">
        <ele>108</ele>
        <time>2016-06-15T18:22:45Z</time>
      </trkpt>
      <trkpt lat="48.06183" lon="-3.9724">
        <ele>107</ele>
        <time>2016-06-15T18:24:45Z</time>
      </trkpt>
      <trkpt lat="48.06173" lon="-3.97255">
        <ele>107</ele>
        <time>2016-06-15T18:26:45Z</time>
      </trkpt>
      <trkpt lat="48.06153" lon="-3.97315">
        <ele>109</ele>
        <time>2016-06-15T18:28:45Z</time>
      </trkpt>
      <trkpt lat="48.06111" lon="-3.97405">
        <ele>112</ele>
        <time>2016-06-15T18:30:45Z</time>
      </trkpt>
      <trkpt lat="48.06079" lon="-3.97477">
        <ele>111</ele>
        <time>2016-06-15T18:32:45Z</time>
      </trkpt>
      <trkpt lat="48.06051" lon="-3.97538">
        <ele>110</ele>
        <time>2016-06-15T18:34:45Z</time>
      </trkpt>
      <trkpt lat="48.06013" lon="-3.97596">
        <ele>110</ele>
        <time>2016-06-15T18:36:45Z</time>
      </trkpt>
      <trkpt lat="48.05999" lon="-3.97637">
        <ele>110</ele>
        <time>2016-06-15T18:38:45Z</time>
      </trkpt>
      <trkpt lat="48.06018" lon="-3.97665">
        <ele>112</ele>
        <time>2016-06-15T18:40:45Z</time>
      </trkpt>
      <trkpt lat="48.06028" lon="-3.97679">
        <ele>113</ele>
        <time>2016-06-15T18:42:45Z</time>
      </trkpt>
      <trkpt lat="48.06017" lon="-3.97687">
        <ele>112</ele>
        <time>2016-06-15T18:44:45Z</time>
      </trkpt>
      <trkpt lat="48.06008" lon="-3.97715">
        <ele>111</ele>
        <time>2016-06-15T18:46:45Z</time>
      </trkpt>
      <trkpt lat="48.06002" lon="-3.97743">
        <ele>111</ele>
        <time>2016-06-15T18:48:45Z</time>
      </trkpt>
      <trkpt lat="48.05991" lon="-3.97781">
        <ele>111</ele>
        <time>2016-06-15T18:50:45Z</time>
      </trkpt>
      <trkpt lat="48.05971" lon="-3.97842">
        <ele>110</ele>
        <time>2016-06-15T18:52:45Z</time>
      </trkpt>
      <trkpt lat="48.05973" lon="-3.97875">
        <ele>110</ele>
        <time>2016-06-15T18:54:45Z</time>
      </trkpt>
      <trkpt lat="48.05972" lon="-3.97906">
        <ele>111</ele>
        <time>2016-06-15T18:56:45Z</time>
      </trkpt>
      <trkpt lat="48.05954" lon="-3.97905">
        <ele>110</ele>
        <time>2016-06-15T18:58:45Z</time>
      </trkpt>
      <trkpt lat="48.05947" lon="-3.97923">
        <ele>110</ele>
        <time>2016-06-15T19:00:45Z</time>
      </trkpt>
      <trkpt lat="48.05941" lon="-3.97957">
        <ele>109</ele>
        <time>2016-06-15T19:02:45Z</time>
      </trkpt>
      <trkpt lat="48.05927" lon="-3.97987">
        <ele>109</ele>
        <time>2016-06-15T19:04:45Z</time>
      </trkpt>
      <trkpt lat="48.05911" lon="-3.98016">
        <ele>108</ele>
        <time>2016-06-15T19:06:45Z</time>
      </trkpt>
      <trkpt lat="48.05905" lon="-3.98037">
        <ele>108</ele>
        <time>2016-06-15T19:08:45Z</time>
      </trkpt>
      <trkpt lat="48.05912" lon="-3.98066">
        <ele>107</ele>
        <time>2016-06-15T19:10:45Z</time>
      </trkpt>
      <trkpt lat="48.05899" lon="-3.98128">
        <ele>105</ele>
        <time>2016-06-15T19:12:45Z</time>
      </trkpt>
      <trkpt lat="48.05888" lon="-3.98159">
        <ele>104</ele>
        <time>2016-06-15T19:14:45Z</time>
      </trkpt>
      <trkpt lat="48.05828" lon="-3.98148">
        <ele>104</ele>
        <time>2016-06-15T19:16:45Z</time>
      </trkpt>
      <trkpt lat="48.05768" lon="-3.98154">
        <ele>102</ele>
        <time>2016-06-15T19:18:45Z</time>
      </trkpt>
      <trkpt lat="48.05663" lon="-3.9817">
        <ele>96</ele>
        <time>2016-06-15T19:20:45Z</time>
      </trkpt>
      <trkpt lat="48.05606" lon="-3.98164">
        <ele>92</ele>
        <time>2016-06-15T19:22:45Z</time>
      </trkpt>
      <trkpt lat="48.05652" lon="-3.97972">
        <ele>90</ele>
        <time>2016-06-15T19:24:45Z</time>
      </trkpt>
      <trkpt lat="48.05628" lon="-3.97968">
        <ele>87</ele>
        <time>2016-06-15T19:26:45Z</time>
      </trkpt>
      <trkpt lat="48.05603" lon="-3.97955">
        <ele>83</ele>
        <time>2016-06-15T19:28:45Z</time>
      </trkpt>
      <trkpt lat="48.05567" lon="-3.97923">
        <ele>79</ele>
        <time>2016-06-15T19:30:45Z</time>
      </trkpt>
      <trkpt lat="48.05555" lon="-3.97931">
        <ele>79</ele>
        <time>2016-06-15T19:32:45Z</time>
      </trkpt>
      <trkpt lat="48.05527" lon="-3.97968">
        <ele>78</ele>
        <time>2016-06-15T19:34:45Z</time>
      </trkpt>
      <trkpt lat="48.05502" lon="-3.97983">
        <ele>77</ele>
        <time>2016-06-15T19:36:45Z</time>
      </trkpt>
      <trkpt lat="48.05496" lon="-3.98011">
        <ele>77</ele>
        <time>2016-06-15T19:38:45Z</time>
      </trkpt>
      <trkpt lat="48.0548" lon="-3.98014">
        <ele>77</ele>
        <time>2016-06-15T19:40:45Z</time>
      </trkpt>
      <trkpt lat="48.05467" lon="-3.97948">
        <ele>78</ele>
        <time>2016-06-15T19:42:45Z</time>
      </trkpt>
      <trkpt lat="48.05457" lon="-3.97944">
        <ele>78</ele>
        <time>2016-06-15T19:44:45Z</time>
      </trkpt>
      <trkpt lat="48.05435" lon="-3.97956">
        <ele>78</ele>
        <time>2016-06-15T19:46:45Z</time>
      </trkpt>
      <trkpt lat="48.05422" lon="-3.97975">
        <ele>77</ele>
        <time>2016-06-15T19:48:45Z</time>
      </trkpt>
      <trkpt lat="48.05401" lon="-3.97976">
        <ele>77</ele>
        <time>2016-06-15T19:50:45Z</time>
      </trkpt>
      <trkpt lat="48.05379" lon="-3.97982">
        <ele>76</ele>
        <time>2016-06-15T19:52:45Z</time>
      </trkpt>
      <trkpt lat="48.05354" lon="-3.97959">
        <ele>77</ele>
        <time>2016-06-15T19:54:45Z</time>
      </trkpt>
      <trkpt lat="48.05352" lon="-3.97918">
        <ele>78</ele>
        <time>2016-06-15T19:56:45Z</time>
      </trkpt>
      <trkpt lat="48.05352" lon="-3.9788">
        <ele>80</ele>
        <time>2016-06-15T19:58:45Z</time>
      </trkpt>
      <trkpt lat="48.05349" lon="-3.97825">
        <ele>84</ele>
        <time>2016-06-15T20:00:45Z</time>
      </trkpt>
      <trkpt lat="48.05344" lon="-3.97773">
        <ele>88</ele>
        <time>2016-06-15T20:02:45Z</time>
      </trkpt>
      <trkpt lat="48.05334" lon="-3.97764">
        <ele>87</ele>
        <time>2016-06-15T20:04:45Z</time>
      </trkpt>
      <trkpt lat="48.05274" lon="-3.9774">
        <ele>88</ele>
        <time>2016-06-15T20:06:45Z</time>
      </trkpt>
      <trkpt lat="48.05268" lon="-3.97765">
        <ele>86</ele>
        <time>2016-06-15T20:08:45Z</time>
      </trkpt>
      <trkpt lat="48.05248" lon="-3.97795">
        <ele>83</ele>
        <time>2016-06-15T20:10:45Z</time>
      </trkpt>
      <trkpt lat="48.05174" lon="-3.97856">
        <ele>82</ele>
        <time>2016-06-15T20:12:45Z</time>
      </trkpt>
      <trkpt lat="48.05161" lon="-3.97879">
        <ele>81</ele>
        <time>2016-06-15T20:14:45Z</time>
      </trkpt>
      <trkpt lat="48.05118" lon="-3.98065">
        <ele>72</ele>
        <time>2016-06-15T20:16:45Z</time>
      </trkpt>
      <trkpt lat="48.05104" lon="-3.98192">
        <ele>73</ele>
        <time>2016-06-15T20:18:45Z</time>
      </trkpt>
      <trkpt lat="48.05095" lon="-3.98291">
        <ele>78</ele>
        <time>2016-06-15T20:20:45Z</time>
      </trkpt>
      <trkpt lat="48.05079" lon="-3.98386">
        <ele>84</ele>
        <time>2016-06-15T20:22:45Z</time>
      </trkpt>
      <trkpt lat="48.05174" lon="-3.98361">
        <ele>85</ele>
        <time>2016-06-15T20:24:45Z</time>
      </trkpt>
      <trkpt lat="48.05192" lon="-3.98365">
        <ele>84</ele>
        <time>2016-06-15T20:26:45Z</time>
      </trkpt>
      <trkpt lat="48.0519" lon="-3.98504">
        <ele>96</ele>
        <time>2016-06-15T20:28:45Z</time>
      </trkpt>
      <trkpt lat="48.05238" lon="-3.98534">
        <ele>97</ele>
        <time>2016-06-15T20:30:45Z</time>
      </trkpt>
      <trkpt lat="48.05242" lon="-3.98488">
        <ele>94</ele>
        <time>2016-06-15T20:32:45Z</time>
      </trkpt>
      <trkpt lat="48.05254" lon="-3.98459">
        <ele>89</ele>
        <time>2016-06-15T20:34:45Z</time>
      </trkpt>
      <trkpt lat="48.05306" lon="-3.985">
        <ele>93</ele>
        <time>2016-06-15T20:36:45Z</time>
      </trkpt>
      <trkpt lat="48.05336" lon="-3.9858">
        <ele>100</ele>
        <time>2016-06-15T20:38:45Z</time>
      </trkpt>
      <trkpt lat="48.05455" lon="-3.98638">
        <ele>95</ele>
        <time>2016-06-15T20:40:45Z</time>
      </trkpt>
      <trkpt lat="48.05472" lon="-3.98608">
        <ele>90</ele>
        <time>2016-06-15T20:42:45Z</time>
      </trkpt>
      <trkpt lat="48.05537" lon="-3.98667">
        <ele>88</ele>
        <time>2016-06-15T20:44:45Z</time>
      </trkpt>
      <trkpt lat="48.05461" lon="-3.99018">
        <ele>102</ele>
        <time>2016-06-15T20:46:45Z</time>
      </trkpt>
      <trkpt lat="48.05379" lon="-3.99166">
        <ele>103</ele>
        <time>2016-06-15T20:48:45Z</time>
      </trkpt>
      <trkpt lat="48.05374" lon="-3.99212">
        <ele>103</ele>
        <time>2016-06-15T20:50:45Z</time>
      </trkpt>
      <trkpt lat="48.05421" lon="-3.99343">
        <ele>107</ele>
        <time>2016-06-15T20:52:45Z</time>
      </trkpt>
      <trkpt lat="48.0541" lon="-3.99393">
        <ele>111</ele>
        <time>2016-06-15T20:54:45Z</time>
      </trkpt>
      <trkpt lat="48.05389" lon="-3.99524">
        <ele>119</ele>
        <time>2016-06-15T20:56:45Z</time>
      </trkpt>
      <trkpt lat="48.05395" lon="-3.99541">
        <ele>119</ele>
        <time>2016-06-15T20:58:45Z</time>
      </trkpt>
      <trkpt lat="48.05407" lon="-3.99547">
        <ele>119</ele>
        <time>2016-06-15T21:00:45Z</time>
      </trkpt>
      <trkpt lat="48.05445" lon="-3.99459">
        <ele>115</ele>
        <time>2016-06-15T21:02:45Z</time>
      </trkpt>
      <trkpt lat="48.0546" lon="-3.99391">
        <ele>111</ele>
        <time>2016-06-15T21:04:45Z</time>
      </trkpt>
      <trkpt lat="48.0559" lon="-3.9943">
        <ele>110</ele>
        <time>2016-06-15T21:06:45Z</time>
      </trkpt>
      <trkpt lat="48.05609" lon="-3.99421">
        <ele>112</ele>
        <time>2016-06-15T21:08:45Z</time>
      </trkpt>
      <trkpt lat="48.05679" lon="-3.99423">
        <ele>121</ele>
        <time>2016-06-15T21:10:45Z</time>
      </trkpt>
      <trkpt lat="48.05694" lon="-3.99364">
        <ele>123</ele>
        <time>2016-06-15T21:12:45Z</time>
      </trkpt>
      <trkpt lat="48.05699" lon="-3.99278">
        <ele>122</ele>
        <time>2016-06-15T21:14:45Z</time>
      </trkpt>
      <trkpt lat="48.05765" lon="-3.9929">
        <ele>126</ele>
        <time>2016-06-15T21:16:45Z</time>
      </trkpt>
      <trkpt lat="48.05776" lon="-3.99312">
        <ele>127</ele>
        <time>2016-06-15T21:18:45Z</time>
      </trkpt>
      <trkpt lat="48.05771" lon="-3.99403">
        <ele>128</ele>
        <time>2016-06-15T21:20:45Z</time>
      </trkpt>
      <trkpt lat="48.0576" lon="-3.99453">
        <ele>129</ele>
        <time>2016-06-15T21:22:45Z</time>
      </trkpt>
      <trkpt lat="48.05759" lon="-3.99484">
        <ele>131</ele>
        <time>2016-06-15T21:24:45Z</time>
      </trkpt>
      <trkpt lat="48.05761" lon="-3.9952">
        <ele>131</ele>
        <time>2016-06-15T21:26:45Z</time>
      </trkpt>
      <trkpt lat="48.05779" lon="-3.99533">
        <ele>132</ele>
        <time>2016-06-15T21:28:45Z</time>
      </trkpt>
      <trkpt lat="48.058" lon="-3.99572">
        <ele>133</ele>
        <time>2016-06-15T21:30:45Z</time>
      </trkpt>
      <trkpt lat="48.05813" lon="-3.99675">
        <ele>132</ele>
        <time>2016-06-15T21:32:45Z</time>
      </trkpt>
      <trkpt lat="48.05807" lon="-3.99715">
        <ele>133</ele>
        <time>2016-06-15T21:34:45Z</time>
      </trkpt>
      <trkpt lat="48.05808" lon="-3.99762">
        <ele>134</ele>
        <time>2016-06-15T21:36:45Z</time>
      </trkpt>
      <trkpt lat="48.0582" lon="-3.99804">
        <ele>134</ele>
        <time>2016-06-15T21:38:45Z</time>
      </trkpt>
      <trkpt lat="48.05848" lon="-3.99828">
        <ele>134</ele>
        <time>2016-06-15T21:40:45Z</time>
      </trkpt>
      <trkpt lat="48.05853" lon="-3.99845">
        <ele>134</ele>
        <time>2016-06-15T21:42:45Z</time>
      </trkpt>
      <trkpt lat="48.05848" lon="-3.99881">
        <ele>134</ele>
        <time>2016-06-15T21:44:45Z</time>
      </trkpt>
      <trkpt lat="48.05858" lon="-3.99899">
        <ele>134</ele>
        <time>2016-06-15T21:46:45Z</time>
      </trkpt>
      <trkpt lat="48.05884" lon="-3.99925">
        <ele>132</ele>
        <time>2016-06-15T21:48:45Z</time>
      </trkpt>
      <trkpt lat="48.05972" lon="-3.99973">
        <ele>131</ele>
        <time>2016-06-15T21:50:45Z</time>
      </trkpt>
      <trkpt lat="48.06023" lon="-3.99999">
        <ele>129</ele>
        <time>2016-06-15T21:52:45Z</time>
      </trkpt>
      <trkpt lat="48.06059" lon="-4.00012">
        <ele>125</ele>
        <time>2016-06-15T21:54:45Z</time>
      </trkpt>
      <trkpt lat="48.06071" lon="-3.99981">
        <ele>124</ele>
        <time>2016-06-15T21:56:45Z</time>
      </trkpt>
      <trkpt lat="48.06084" lon="-3.99922">
        <ele>123</ele>
        <time>2016-06-15T21:58:45Z</time>
      </trkpt>
      <trkpt lat="48.06089" lon="-3.99833">
        <ele>120</ele>
        <time>2016-06-15T22:00:45Z</time>
      </trkpt>
      <trkpt lat="48.06087" lon="-3.99722">
        <ele>112</ele>
        <time>2016-06-15T22:02:45Z</time>
      </trkpt>
      <trkpt lat="48.0608" lon="-3.99617">
        <ele>110</ele>
        <time>2016-06-15T22:04:45Z</time>
      </trkpt>
      <trkpt lat="48.06094" lon="-3.99543">
        <ele>113</ele>
        <time>2016-06-15T22:06:45Z</time>
      </trkpt>
      <trkpt lat="48.06097" lon="-3.99508">
        <ele>115</ele>
        <time>2016-06-15T22:08:45Z</time>
      </trkpt>
      <trkpt lat="48.06112" lon="-3.99434">
        <ele>116</ele>
        <time>2016-06-15T22:10:45Z</time>
      </trkpt>
      <trkpt lat="48.06127" lon="-3.99386">
        <ele>115</ele>
        <time>2016-06-15T22:12:45Z</time>
      </trkpt>
      <trkpt lat="48.06135" lon="-3.99372">
        <ele>115</ele>
        <time>2016-06-15T22:14:45Z</time>
      </trkpt>
      <trkpt lat="48.06172" lon="-3.99301">
        <ele>116</ele>
        <time>2016-06-15T22:16:45Z</time>
      </trkpt>
      <trkpt lat="48.06215" lon="-3.99241">
        <ele>114</ele>
        <time>2016-06-15T22:18:45Z</time>
      </trkpt>
      <trkpt lat="48.06207" lon="-3.99165">
        <ele>115</ele>
        <time>2016-06-15T22:20:45Z</time>
      </trkpt>
      <trkpt lat="48.06213" lon="-3.99068">
        <ele>112</ele>
        <time>2016-06-15T22:22:45Z</time>
      </trkpt>
      <trkpt lat="48.06225" lon="-3.98925">
        <ele>99</ele>
        <time>2016-06-15T22:24:45Z</time>
      </trkpt>
      <trkpt lat="48.06216" lon="-3.98819">
        <ele>86</ele>
        <time>2016-06-15T22:26:45Z</time>
      </trkpt>
      <trkpt lat="48.06238" lon="-3.98765">
        <ele>82</ele>
        <time>2016-06-15T22:28:45Z</time>
      </trkpt>
      <trkpt lat="48.06255" lon="-3.98664">
        <ele>82</ele>
        <time>2016-06-15T22:30:45Z</time>
      </trkpt>
      <trkpt lat="48.06253" lon="-3.98628">
        <ele>85</ele>
        <time>2016-06-15T22:32:45Z</time>
      </trkpt>
      <trkpt lat="48.06216" lon="-3.98624">
        <ele>87</ele>
        <time>2016-06-15T22:34:45Z</time>
      </trkpt>
      <trkpt lat="48.06197" lon="-3.98605">
        <ele>89</ele>
        <time>2016-06-15T22:36:45Z</time>
      </trkpt>
      <trkpt lat="48.06183" lon="-3.98576">
        <ele>92</ele>
        <time>2016-06-15T22:38:45Z</time>
      </trkpt>
      <trkpt lat="48.06165" lon="-3.9856">
        <ele>93</ele>
        <time>2016-06-15T22:40:45Z</time>
      </trkpt>
      <trkpt lat="48.06147" lon="-3.98522">
        <ele>94</ele>
        <time>2016-06-15T22:42:45Z</time>
      </trkpt>
      <trkpt lat="48.06149" lon="-3.98504">
        <ele>95</ele>
        <time>2016-06-15T22:44:45Z</time>
      </trkpt>
      <trkpt lat="48.06163" lon="-3.98442">
        <ele>95</ele>
        <time>2016-06-15T22:46:45Z</time>
      </trkpt>
      <trkpt lat="48.06168" lon="-3.98387">
        <ele>96</ele>
        <time>2016-06-15T22:48:45Z</time>
      </trkpt>
      <trkpt lat="48.06166" lon="-3.98336">
        <ele>98</ele>
        <time>2016-06-15T22:50:45Z</time>
      </trkpt>
      <trkpt lat="48.06158" lon="-3.98298">
        <ele>99</ele>
        <time>2016-06-15T22:52:45Z</time>
      </trkpt>
      <trkpt lat="48.06154" lon="-3.98246">
        <ele>101</ele>
        <time>2016-06-15T22:54:45Z</time>
      </trkpt>
      <trkpt lat="48.06151" lon="-3.982">
        <ele>102</ele>
        <time>2016-06-15T22:56:45Z</time>
      </trkpt>
      <trkpt lat="48.06146" lon="-3.98177">
        <ele>103</ele>
        <time>2016-06-15T22:58:45Z</time>
      </trkpt>
      <trkpt lat="48.06154" lon="-3.98098">
        <ele>105</ele>
        <time>2016-06-15T23:00:45Z</time>
      </trkpt>
      <trkpt lat="48.06226" lon="-3.98118">
        <ele>108</ele>
        <time>2016-06-15T23:02:45Z</time>
      </trkpt>
      <trkpt lat="48.06277" lon="-3.98091">
        <ele>112</ele>
        <time>2016-06-15T23:04:45Z</time>
      </trkpt>
      <trkpt lat="48.0635" lon="-3.98075">
        <ele>115</ele>
        <time>2016-06-15T23:06:45Z</time>
      </trkpt>
      <trkpt lat="48.06327" lon="-3.97949">
        <ele>119</ele>
        <time>2016-06-15T23:08:45Z</time>
      </trkpt>
      <trkpt lat="48.0634" lon="-3.97878">
        <ele>120</ele>
        <time>2016-06-15T23:10:45Z</time>
      </trkpt>
      <trkpt lat="48.06329" lon="-3.97865">
        <ele>120</ele>
        <time>2016-06-15T23:12:45Z</time>
      </trkpt>
      <trkpt lat="48.06331" lon="-3.97837">
        <ele>120</ele>
        <time>2016-06-15T23:14:45Z</time>
      </trkpt>
      <trkpt lat="48.06325" lon="-3.97815">
        <ele>120</ele>
        <time>2016-06-15T23:16:45Z</time>
      </trkpt>
      <trkpt lat="48.06364" lon="-3.97745">
        <ele>119</ele>
        <time>2016-06-15T23:18:45Z</time>
      </trkpt>
      <trkpt lat="48.06384" lon="-3.97657">
        <ele>122</ele>
        <time>2016-06-15T23:20:45Z</time>
      </trkpt>
      <trkpt lat="48.06408" lon="-3.97618">
        <ele>122</ele>
        <time>2016-06-15T23:22:45Z</time>
      </trkpt>
      <trkpt lat="48.06378" lon="-3.97573">
        <ele>123</ele>
        <time>2016-06-15T23:24:45Z</time>
      </trkpt>
    </trkseg>
  </trk>
</gpx>